Time;durP1;ratioP1;P1;durP2;ratioP2;P2;SDS_P1;SDS_P2;PMS_P1;PMS_P2;Temp;Humidity;BMP_temperature;BMP_pressure;BME280_temperature;BME280_humidity;BME280_pressure;Samples;Min_cycle;Max_cycle;Signal;HPM_P1;HPM_P2
2023/10/20 00:00:16;;;;;;;23.00;15.63;;;14.90;99.90;;;;;;5034597;28;20583;-71
2023/10/20 00:02:42;;;;;;;21.60;15.60;;;14.90;99.90;;;;;;5034455;28;20210;-71
2023/10/20 00:05:09;;;;;;;21.07;14.80;;;14.90;99.90;;;;;;5034060;28;20643;-71
2023/10/20 00:07:35;;;;;;;23.43;16.23;;;15.00;99.90;;;;;;5034462;28;20575;-71
2023/10/20 00:10:02;;;;;;;21.40;15.00;;;15.00;99.90;;;;;;5034281;28;20198;-71
2023/10/20 00:12:28;;;;;;;21.97;16.17;;;15.00;99.90;;;;;;5034616;28;20199;-71
2023/10/20 00:14:53;;;;;;;21.37;16.23;;;15.00;99.90;;;;;;5033934;28;20206;-71
2023/10/20 00:17:19;;;;;;;20.33;15.33;;;15.00;99.90;;;;;;5034107;28;20191;-71
2023/10/20 00:19:45;;;;;;;21.00;15.33;;;15.10;99.90;;;;;;5033570;28;20175;-71
2023/10/20 00:22:11;;;;;;;23.70;16.30;;;15.10;99.90;;;;;;5034998;28;20253;-71
2023/10/20 00:24:36;;;;;;;19.57;15.50;;;15.10;99.90;;;;;;5034866;28;20172;-70
2023/10/20 00:27:03;;;;;;;20.70;15.60;;;15.10;99.90;;;;;;5034365;28;20672;-71
2023/10/20 00:29:28;;;;;;;19.63;15.23;;;15.10;99.90;;;;;;5034240;28;20168;-71
2023/10/20 00:31:54;;;;;;;23.90;15.90;;;15.10;99.90;;;;;;5033889;28;20586;-71
2023/10/20 00:34:19;;;;;;;23.10;16.70;;;15.10;99.90;;;;;;5033842;28;20172;-71
2023/10/20 00:36:45;;;;;;;23.80;15.63;;;15.00;99.90;;;;;;5033645;28;20259;-71
2023/10/20 00:39:12;;;;;;;21.80;16.07;;;15.00;99.90;;;;;;5033860;28;20208;-72
2023/10/20 00:41:38;;;;;;;22.43;15.30;;;15.10;99.90;;;;;;5015797;28;20669;-71
2023/10/20 00:44:04;;;;;;;23.83;16.03;;;15.10;99.90;;;;;;5033674;28;20585;-71
2023/10/20 00:46:30;;;;;;;23.37;16.20;;;15.10;99.90;;;;;;5033257;28;20199;-71
2023/10/20 00:48:57;;;;;;;22.53;16.73;;;15.00;99.90;;;;;;5033573;28;20202;-71
2023/10/20 00:51:24;;;;;;;20.73;15.97;;;15.00;99.90;;;;;;5033686;28;20187;-71
2023/10/20 00:53:50;;;;;;;24.20;16.83;;;15.00;99.90;;;;;;5033574;28;20218;-71
2023/10/20 00:56:17;;;;;;;21.97;15.73;;;15.00;99.90;;;;;;5033463;28;20190;-71
2023/10/20 00:58:43;;;;;;;26.50;18.37;;;15.00;99.90;;;;;;5033696;28;20207;-71
2023/10/20 01:01:15;;;;;;;26.27;17.60;;;15.00;99.90;;;;;;5033478;28;20229;-71
2023/10/20 01:03:41;;;;;;;24.37;18.40;;;15.00;99.90;;;;;;5033701;28;20697;-71
2023/10/20 01:06:07;;;;;;;25.27;17.83;;;15.00;99.90;;;;;;5033392;28;20203;-71
2023/10/20 01:08:32;;;;;;;26.90;17.93;;;15.00;99.90;;;;;;5033212;28;20249;-71
2023/10/20 01:10:58;;;;;;;24.70;17.83;;;15.00;99.90;;;;;;5033395;28;20627;-71
2023/10/20 01:13:23;;;;;;;24.07;17.23;;;14.90;99.90;;;;;;5015012;28;20191;-71
2023/10/20 01:15:50;;;;;;;23.37;17.13;;;14.90;99.90;;;;;;5032881;28;20188;-71
2023/10/20 01:18:15;;;;;;;23.67;16.90;;;15.00;99.90;;;;;;5015229;28;20252;-70
2023/10/20 01:20:41;;;;;;;25.50;17.53;;;15.00;99.90;;;;;;5033424;28;20207;-71
2023/10/20 01:23:06;;;;;;;24.20;16.87;;;15.00;99.90;;;;;;5032883;28;20172;-71
2023/10/20 01:25:32;;;;;;;20.33;16.43;;;15.00;99.90;;;;;;5032898;28;20568;-71
2023/10/20 01:27:58;;;;;;;21.77;16.57;;;15.00;99.90;;;;;;5032611;28;20207;-71
2023/10/20 01:30:25;;;;;;;23.57;16.33;;;15.00;99.90;;;;;;5033201;28;20199;-71
2023/10/20 01:32:50;;;;;;;26.63;17.03;;;15.00;99.90;;;;;;5015051;28;20185;-71
2023/10/20 01:35:16;;;;;;;25.10;17.33;;;15.00;99.90;;;;;;5032697;28;20171;-71
2023/10/20 01:37:42;;;;;;;22.67;17.43;;;15.00;99.90;;;;;;5032910;28;20664;-71
2023/10/20 01:40:09;;;;;;;24.53;17.43;;;15.10;99.90;;;;;;5032553;28;20514;-71
2023/10/20 01:42:36;;;;;;;22.63;16.60;;;15.00;99.90;;;;;;5032905;28;20278;-71
2023/10/20 01:45:02;;;;;;;27.60;16.87;;;15.10;99.90;;;;;;5032353;28;20178;-71
2023/10/20 01:47:28;;;;;;;27.00;16.43;;;15.10;99.90;;;;;;5032279;28;20203;-71
2023/10/20 01:49:53;;;;;;;20.73;15.53;;;15.00;99.90;;;;;;5032441;28;20218;-71
2023/10/20 01:52:19;;;;;;;23.87;16.57;;;15.10;99.90;;;;;;5032749;28;20199;-71
2023/10/20 01:54:46;;;;;;;20.53;15.53;;;15.10;99.90;;;;;;5032478;28;20175;-71
2023/10/20 01:57:11;;;;;;;20.93;16.70;;;15.10;99.90;;;;;;5032516;28;20183;-71
2023/10/20 01:59:37;;;;;;;24.10;15.53;;;15.10;99.90;;;;;;5032467;28;20233;-71
2023/10/20 02:02:04;;;;;;;26.23;16.50;;;15.10;99.90;;;;;;5032313;28;20290;-71
2023/10/20 02:04:30;;;;;;;20.80;15.47;;;15.10;99.90;;;;;;5032388;28;20203;-71
2023/10/20 02:06:56;;;;;;;22.83;16.57;;;15.10;99.90;;;;;;5032219;28;20203;-71
2023/10/20 02:09:25;;;;;;;20.73;15.60;;;15.10;99.90;;;;;;5032038;28;20183;-71
2023/10/20 02:11:51;;;;;;;18.43;14.13;;;15.10;99.90;;;;;;5032425;28;20571;-71
2023/10/20 02:14:17;;;;;;;24.10;15.07;;;15.10;99.90;;;;;;5032235;28;20222;-71
2023/10/20 02:16:43;;;;;;;16.40;13.23;;;15.10;99.90;;;;;;5032015;28;20226;-71
2023/10/20 02:19:10;;;;;;;18.97;13.67;;;15.20;99.90;;;;;;5032165;28;20237;-72
2023/10/20 02:21:36;;;;;;;20.17;13.60;;;15.20;99.90;;;;;;5032210;28;20191;-72
2023/10/20 02:24:03;;;;;;;18.10;12.43;;;15.20;99.90;;;;;;5031829;28;20550;-72
2023/10/20 02:26:28;;;;;;;16.50;12.63;;;15.20;99.90;;;;;;5014217;28;20610;-71
2023/10/20 02:28:54;;;;;;;17.53;13.30;;;15.20;99.90;;;;;;5031980;28;20214;-72
2023/10/20 02:31:20;;;;;;;17.77;13.63;;;15.20;99.90;;;;;;5031682;28;20299;-71
2023/10/20 02:33:46;;;;;;;16.27;12.60;;;15.20;99.90;;;;;;5031847;28;20186;-71
2023/10/20 02:36:19;;;;;;;18.57;13.70;;;15.20;99.90;;;;;;5031667;28;20198;-71
2023/10/20 02:38:46;;;;;;;16.67;13.03;;;15.20;99.90;;;;;;5031972;28;20168;-71
2023/10/20 02:41:13;;;;;;;20.60;13.63;;;15.20;99.90;;;;;;5031756;28;20203;-72
2023/10/20 02:43:38;;;;;;;18.10;13.13;;;15.10;99.90;;;;;;5032089;28;20224;-72
2023/10/20 02:46:04;;;;;;;17.57;13.80;;;15.10;99.90;;;;;;5031194;28;20671;-71
2023/10/20 02:48:30;;;;;;;19.23;13.13;;;15.10;99.90;;;;;;5031794;28;20635;-71
2023/10/20 02:50:55;;;;;;;17.57;12.57;;;15.10;99.90;;;;;;5031314;28;20211;-71
2023/10/20 02:53:21;;;;;;;18.17;12.40;;;15.10;99.90;;;;;;5031579;28;20200;-71
2023/10/20 02:55:47;;;;;;;13.27;11.87;;;15.10;99.90;;;;;;5031529;28;20183;-72
2023/10/20 02:58:13;;;;;;;15.27;11.73;;;15.10;99.90;;;;;;5031701;28;20262;-71
2023/10/20 03:00:43;;;;;;;15.47;12.40;;;15.10;99.90;;;;;;5030693;28;20245;-71
2023/10/20 03:03:11;;;;;;;13.17;11.20;;;15.10;99.90;;;;;;5031201;28;20180;-71
2023/10/20 03:05:37;;;;;;;14.73;10.93;;;15.10;99.90;;;;;;5031382;28;20199;-72
2023/10/20 03:08:03;;;;;;;13.57;11.17;;;15.10;99.90;;;;;;5031342;28;20564;-72
2023/10/20 03:10:29;;;;;;;15.47;11.30;;;15.10;99.90;;;;;;5031202;28;20191;-72
2023/10/20 03:12:54;;;;;;;14.73;10.33;;;15.10;99.90;;;;;;5031358;28;20198;-71
2023/10/20 03:15:20;;;;;;;12.27;10.30;;;15.00;99.90;;;;;;5031038;28;20194;-71
2023/10/20 03:17:46;;;;;;;14.53;10.37;;;15.10;99.90;;;;;;5031178;28;20209;-72
2023/10/20 03:20:17;;;;;;;11.63;10.47;;;15.10;99.90;;;;;;5031457;28;20176;-72
2023/10/20 03:22:47;;;;;;;13.13;9.70;;;15.00;99.90;;;;;;5013413;28;20187;-72
2023/10/20 03:25:13;;;;;;;10.73;9.73;;;15.10;99.90;;;;;;5030959;28;20171;-72
2023/10/20 03:27:38;;;;;;;12.00;10.13;;;15.00;99.90;;;;;;5031320;28;20174;-72
2023/10/20 03:30:05;;;;;;;11.40;9.87;;;15.00;99.90;;;;;;5030999;28;20188;-72
2023/10/20 03:32:32;;;;;;;10.53;8.37;;;15.10;99.90;;;;;;5031342;28;20186;-71
2023/10/20 03:34:57;;;;;;;10.77;8.67;;;15.00;99.90;;;;;;5031006;28;20218;-71
2023/10/20 03:37:23;;;;;;;11.63;8.37;;;15.10;99.90;;;;;;5031097;28;20610;-71
2023/10/20 03:39:50;;;;;;;8.67;7.77;;;15.10;99.90;;;;;;5031417;28;20183;-72
2023/10/20 03:42:16;;;;;;;11.27;8.90;;;15.10;99.90;;;;;;5030841;28;20230;-71
2023/10/20 03:44:43;;;;;;;9.33;8.23;;;15.10;99.90;;;;;;5030637;28;20215;-71
2023/10/20 03:47:09;;;;;;;8.53;7.63;;;15.10;99.90;;;;;;5030955;28;20203;-72
2023/10/20 03:49:35;;;;;;;9.23;8.27;;;15.10;99.90;;;;;;5031141;28;20187;-71
2023/10/20 03:52:06;;;;;;;8.90;8.10;;;15.10;99.90;;;;;;5031018;28;20226;-71
2023/10/20 03:54:32;;;;;;;9.93;8.53;;;15.10;99.90;;;;;;5030879;28;20168;-71
2023/10/20 03:56:59;;;;;;;9.33;7.97;;;15.10;99.90;;;;;;5030743;28;20266;-71
2023/10/20 03:59:25;;;;;;;11.33;8.37;;;15.10;99.90;;;;;;5030910;28;20266;-71
2023/10/20 04:01:53;;;;;;;11.87;9.17;;;15.10;99.90;;;;;;5013175;28;20204;-71
2023/10/20 04:04:19;;;;;;;11.07;8.90;;;15.10;99.90;;;;;;5031154;28;20245;-71
2023/10/20 04:06:45;;;;;;;10.43;8.97;;;15.10;99.90;;;;;;5030725;28;20290;-71
2023/10/20 04:09:11;;;;;;;10.07;9.03;;;15.20;99.90;;;;;;5030642;28;20183;-72
2023/10/20 04:11:38;;;;;;;10.53;9.50;;;15.10;99.90;;;;;;5032121;28;20192;-72
2023/10/20 04:14:06;;;;;;;10.97;9.63;;;15.10;99.90;;;;;;5034529;28;20650;-72
2023/10/20 04:16:39;;;;;;;10.57;9.50;;;15.10;99.90;;;;;;5034393;28;20261;-72
2023/10/20 04:19:14;;;;;;;15.97;10.23;;;15.20;99.90;;;;;;5034418;28;20283;-72
2023/10/20 04:21:41;;;;;;;12.13;9.37;;;15.20;99.90;;;;;;5034054;28;20245;-71
2023/10/20 04:24:10;;;;;;;13.77;9.80;;;15.20;99.90;;;;;;5034679;28;20260;-72
2023/10/20 04:26:43;;;;;;;11.07;9.87;;;15.20;99.90;;;;;;5016179;28;20561;-72
2023/10/20 05:01:20;;;;;;;10.83;9.70;;;15.00;99.90;;;;;;5033961;28;20191;-72
2023/10/20 05:03:45;;;;;;;10.27;9.27;;;15.00;99.90;;;;;;5033543;28;20661;-72
2023/10/20 05:06:22;;;;;;;13.83;9.53;;;15.00;99.90;;;;;;5015216;28;20294;-72
2023/10/20 05:08:48;;;;;;;12.13;9.47;;;15.10;99.90;;;;;;5033627;28;20174;-72
2023/10/20 05:11:15;;;;;;;10.93;9.10;;;15.10;99.90;;;;;;5015649;28;20303;-72
2023/10/20 05:13:41;;;;;;;12.47;8.83;;;15.00;99.90;;;;;;5033460;28;20164;-73
2023/10/20 05:16:09;;;;;;;11.60;9.63;;;15.10;99.90;;;;;;5033396;28;20171;-72
2023/10/20 05:18:38;;;;;;;13.43;8.87;;;15.10;99.90;;;;;;5033463;28;20720;-72
2023/10/20 05:21:06;;;;;;;9.37;8.40;;;15.10;99.90;;;;;;5033022;28;20558;-73
2023/10/20 05:23:33;;;;;;;10.73;8.57;;;15.10;99.90;;;;;;5014977;28;20639;-72
2023/10/20 05:25:59;;;;;;;9.77;8.87;;;15.10;99.90;;;;;;5014912;28;20249;-73
2023/10/20 05:28:25;;;;;;;10.40;9.40;;;15.00;99.90;;;;;;5033335;28;20250;-73
2023/10/20 05:30:51;;;;;;;9.37;8.37;;;15.00;99.90;;;;;;5032981;28;20268;-73
2023/10/20 05:33:17;;;;;;;8.87;7.97;;;15.10;99.90;;;;;;5032742;28;20175;-73
2023/10/20 05:35:43;;;;;;;8.77;7.93;;;15.00;99.90;;;;;;5032689;28;20250;-72
2023/10/20 05:38:09;;;;;;;9.47;7.83;;;15.00;99.90;;;;;;5014699;28;20177;-72
2023/10/20 05:40:36;;;;;;;8.63;7.47;;;15.00;99.90;;;;;;5014651;28;20282;-73
2023/10/20 05:43:03;;;;;;;10.30;7.50;;;15.00;99.90;;;;;;5032672;28;20171;-72
2023/10/20 05:45:32;;;;;;;7.80;7.10;;;15.00;99.90;;;;;;5014638;28;20569;-73
2023/10/20 05:47:59;;;;;;;7.60;6.80;;;15.00;99.90;;;;;;5032335;28;20307;-73
2023/10/20 05:50:25;;;;;;;8.53;7.60;;;15.00;99.90;;;;;;5032669;28;20198;-73
2023/10/20 05:52:53;;;;;;;7.70;7.00;;;15.00;99.90;;;;;;5032498;28;20254;-73
2023/10/20 05:55:19;;;;;;;8.17;7.37;;;15.00;99.90;;;;;;5032099;28;20179;-73
2023/10/20 05:57:45;;;;;;;8.23;7.43;;;15.00;99.90;;;;;;5032366;28;20651;-73
2023/10/20 06:00:13;;;;;;;10.03;6.87;;;15.00;99.90;;;;;;5032414;28;20175;-73
2023/10/20 06:02:40;;;;;;;10.33;7.20;;;15.00;99.90;;;;;;5032129;28;20595;-72
2023/10/20 06:05:07;;;;;;;9.67;6.73;;;15.00;99.90;;;;;;5032096;28;20164;-73
2023/10/20 06:07:33;;;;;;;7.43;6.73;;;15.00;99.90;;;;;;5032132;28;20202;-73
2023/10/20 06:09:58;;;;;;;8.60;6.83;;;15.00;99.90;;;;;;5031598;28;20184;-73
2023/10/20 06:12:24;;;;;;;6.90;6.30;;;15.00;99.90;;;;;;5032266;28;20167;-73
2023/10/20 06:14:49;;;;;;;7.90;7.20;;;15.00;99.90;;;;;;5031892;28;20202;-73
2023/10/20 06:17:18;;;;;;;7.40;6.70;;;15.00;99.90;;;;;;5031723;28;20226;-73
2023/10/20 06:19:46;;;;;;;7.10;6.10;;;15.00;99.90;;;;;;5031983;28;20217;-73
2023/10/20 06:22:12;;;;;;;7.03;6.43;;;15.00;99.90;;;;;;5014215;28;20191;-73
2023/10/20 06:24:38;;;;;;;7.63;6.93;;;15.00;99.90;;;;;;5031673;28;20290;-73
2023/10/20 06:27:04;;;;;;;8.40;7.57;;;15.00;99.90;;;;;;5014146;28;20753;-73
2023/10/20 06:32:08;;;;;;;8.33;7.40;;;15.10;99.90;;;;;;5028409;28;20195;-73
2023/10/20 06:34:37;;;;;;;8.30;7.10;;;15.10;99.90;;;;;;5031306;28;20176;-74
2023/10/20 06:37:09;;;;;;;9.43;7.00;;;15.10;99.90;;;;;;5031578;28;20197;-73
2023/10/20 06:39:38;;;;;;;8.60;6.93;;;15.10;99.90;;;;;;5030866;28;20180;-73
2023/10/20 06:42:05;;;;;;;12.33;7.90;;;15.10;99.90;;;;;;5031407;28;20199;-73
2023/10/20 06:44:30;;;;;;;7.83;7.13;;;15.10;99.90;;;;;;5031040;28;20202;-73
2023/10/20 06:46:56;;;;;;;8.43;7.27;;;15.10;99.90;;;;;;5012576;28;20690;-74
2023/10/20 06:49:23;;;;;;;8.43;6.97;;;15.10;99.90;;;;;;5013792;28;20267;-74
2023/10/20 06:51:49;;;;;;;7.53;6.90;;;15.10;99.90;;;;;;5030900;28;20219;-74
2023/10/20 06:54:16;;;;;;;10.80;6.83;;;15.10;99.90;;;;;;5031296;28;20172;-73
2023/10/20 06:56:41;;;;;;;14.90;6.80;;;15.10;99.90;;;;;;5012858;28;20171;-73
2023/10/20 06:59:12;;;;;;;8.30;7.20;;;15.10;99.90;;;;;;5013339;28;20667;-73
2023/10/20 07:01:37;;;;;;;7.20;6.50;;;15.10;99.90;;;;;;5030182;28;20191;-73
2023/10/20 07:04:06;;;;;;;8.27;7.33;;;15.10;99.90;;;;;;5031149;28;20198;-73
2023/10/20 07:06:32;;;;;;;7.80;7.00;;;15.10;99.90;;;;;;5030847;28;20191;-73
2023/10/20 07:08:57;;;;;;;8.60;7.03;;;15.10;99.90;;;;;;5013291;28;20171;-73
2023/10/20 07:11:24;;;;;;;9.97;7.20;;;15.00;99.90;;;;;;5030655;28;20670;-73
2023/10/20 07:13:50;;;;;;;11.67;7.23;;;15.10;99.90;;;;;;5030915;28;20660;-73
2023/10/20 07:16:15;;;;;;;10.83;8.03;;;15.10;99.90;;;;;;5030934;28;20176;-74
2023/10/20 07:18:41;;;;;;;8.33;7.47;;;15.10;99.90;;;;;;5030902;28;20611;-74
2023/10/20 07:21:06;;;;;;;10.23;8.37;;;15.00;99.90;;;;;;5012897;28;20801;-74
2023/10/20 07:23:32;;;;;;;10.43;8.47;;;15.10;99.90;;;;;;5030766;28;20743;-74
2023/10/20 07:25:58;;;;;;;10.33;8.50;;;15.10;99.90;;;;;;5032043;28;20203;-74
2023/10/20 07:28:23;;;;;;;8.90;8.00;;;15.10;99.90;;;;;;5031345;28;20199;-74
2023/10/20 07:30:49;;;;;;;9.60;8.47;;;15.10;99.90;;;;;;5031265;28;20213;-73
2023/10/20 07:33:16;;;;;;;10.80;8.77;;;15.20;99.90;;;;;;5031069;28;20250;-73
2023/10/20 07:35:42;;;;;;;10.17;8.23;;;15.20;99.90;;;;;;5030267;28;20221;-73
2023/10/20 07:38:08;;;;;;;10.83;8.13;;;15.30;99.90;;;;;;5031293;28;20266;-73
2023/10/20 07:40:37;;;;;;;15.07;9.47;;;15.30;99.90;;;;;;5030809;28;20231;-73
2023/10/20 07:43:06;;;;;;;9.77;8.77;;;15.40;99.90;;;;;;5030945;28;20698;-73
2023/10/20 07:45:37;;;;;;;11.63;9.10;;;15.40;99.90;;;;;;5030649;28;20735;-74
2023/10/20 07:48:05;;;;;;;10.73;9.50;;;15.30;99.90;;;;;;5034878;28;20163;-73
2023/10/20 07:50:31;;;;;;;11.13;9.30;;;15.20;99.90;;;;;;5034925;28;20215;-73
2023/10/20 07:52:56;;;;;;;12.03;9.17;;;15.20;99.90;;;;;;5034783;28;20191;-73
2023/10/20 07:55:22;;;;;;;13.73;9.60;;;15.20;99.90;;;;;;5033694;28;20179;-73
2023/10/20 07:57:48;;;;;;;12.13;9.20;;;15.20;99.90;;;;;;5035318;28;20168;-72
2023/10/20 08:00:14;;;;;;;12.23;9.80;;;15.20;99.90;;;;;;5034793;28;20194;-72
2023/10/20 08:02:41;;;;;;;13.77;10.00;;;15.20;99.90;;;;;;5034573;28;20184;-72
2023/10/20 08:05:08;;;;;;;12.93;9.43;;;15.30;99.90;;;;;;5016744;28;20167;-72
2023/10/20 08:07:33;;;;;;;11.90;10.10;;;15.30;99.90;;;;;;5033748;28;20206;-73
2023/10/20 08:09:59;;;;;;;15.83;11.20;;;15.30;99.90;;;;;;5034408;28;20167;-73
2023/10/20 08:12:25;;;;;;;17.87;11.43;;;15.30;99.90;;;;;;5034615;28;20183;-72
2023/10/20 08:14:50;;;;;;;15.00;11.23;;;15.30;99.90;;;;;;5034205;28;20171;-73
2023/10/20 08:17:16;;;;;;;16.93;11.70;;;15.30;99.90;;;;;;5034397;28;20195;-72
2023/10/20 08:19:45;;;;;;;14.57;11.83;;;15.30;99.90;;;;;;5034189;28;20183;-72
2023/10/20 08:22:11;;;;;;;18.60;11.77;;;15.30;99.90;;;;;;5033983;28;20198;-73
2023/10/20 08:24:36;;;;;;;16.33;12.70;;;15.30;99.90;;;;;;5034398;28;20171;-72
2023/10/20 08:27:02;;;;;;;17.97;12.37;;;15.30;99.90;;;;;;5034110;28;20203;-72
2023/10/20 08:29:27;;;;;;;16.90;12.03;;;15.30;99.90;;;;;;5034079;28;20214;-72
2023/10/20 08:31:53;;;;;;;16.93;12.17;;;15.30;99.90;;;;;;5034010;28;20203;-72
2023/10/20 08:34:19;;;;;;;17.33;12.47;;;15.30;99.90;;;;;;5034091;28;20174;-72
2023/10/20 08:36:44;;;;;;;22.27;13.10;;;15.30;99.90;;;;;;5033496;28;20183;-72
2023/10/20 08:39:13;;;;;;;18.83;12.63;;;15.40;99.90;;;;;;5033843;28;20246;-73
2023/10/20 08:41:43;;;;;;;20.73;13.57;;;15.40;99.90;;;;;;5034011;28;20219;-73
2023/10/20 08:44:10;;;;;;;19.33;12.67;;;15.30;99.90;;;;;;5016132;28;20187;-72
2023/10/20 08:46:36;;;;;;;19.40;13.20;;;15.30;99.90;;;;;;5033748;28;20195;-72
2023/10/20 08:49:05;;;;;;;27.37;14.67;;;15.30;99.90;;;;;;5033937;28;20187;-72
2023/10/20 08:51:31;;;;;;;21.67;13.73;;;15.30;99.90;;;;;;5033441;28;20196;-72
2023/10/20 08:53:56;;;;;;;18.63;14.50;;;15.30;99.90;;;;;;5033581;28;20168;-74
2023/10/20 08:56:22;;;;;;;18.93;14.77;;;15.30;99.90;;;;;;5033288;28;20201;-74
2023/10/20 08:58:48;;;;;;;17.93;14.10;;;15.30;99.90;;;;;;5031957;28;20650;-74
2023/10/20 09:01:15;;;;;;;19.43;14.83;;;15.20;99.90;;;;;;5033679;28;20191;-75
2023/10/20 09:03:51;;;;;;;20.10;15.00;;;15.20;99.90;;;;;;5033069;28;20543;-73
2023/10/20 09:06:17;;;;;;;21.73;13.90;;;15.20;99.90;;;;;;5015483;28;20467;-73
2023/10/20 09:08:46;;;;;;;19.50;14.33;;;15.20;99.90;;;;;;5033309;28;20225;-74
2023/10/20 09:11:12;;;;;;;18.90;15.77;;;15.20;99.90;;;;;;5033603;28;20193;-73
2023/10/20 09:13:40;;;;;;;19.50;14.43;;;15.20;99.90;;;;;;5032873;28;20171;-73
2023/10/20 09:16:07;;;;;;;20.77;14.83;;;15.20;99.90;;;;;;5033236;28;20167;-73
2023/10/20 09:18:53;;;;;;;19.17;14.07;;;15.20;99.90;;;;;;5033523;28;20269;-73
2023/10/20 09:21:28;;;;;;;19.13;14.07;;;15.20;99.90;;;;;;5033447;28;20199;-73
2023/10/20 09:24:02;;;;;;;19.97;14.17;;;15.20;99.90;;;;;;5033199;28;20202;-73
2023/10/20 09:26:30;;;;;;;19.13;13.53;;;15.10;99.90;;;;;;5033087;28;20245;-73
2023/10/20 09:28:56;;;;;;;20.00;14.03;;;15.10;99.90;;;;;;5032959;28;20185;-73
2023/10/20 09:31:24;;;;;;;19.00;13.50;;;15.10;99.90;;;;;;5033088;28;20198;-72
2023/10/20 09:33:50;;;;;;;17.10;13.87;;;15.10;99.90;;;;;;5033014;28;20179;-74
2023/10/20 09:36:17;;;;;;;18.47;13.40;;;15.10;99.90;;;;;;5031522;28;20655;-74
2023/10/20 09:38:54;;;;;;;18.47;13.60;;;15.10;99.90;;;;;;5015085;28;20667;-75
2023/10/20 09:41:24;;;;;;;22.10;13.70;;;15.10;99.90;;;;;;5032902;28;20199;-75
2023/10/20 09:44:02;;;;;;;23.13;13.57;;;15.20;99.90;;;;;;5031901;28;20175;-74
2023/10/20 09:46:41;;;;;;;18.23;14.03;;;15.20;99.90;;;;;;5031598;28;20203;-74
2023/10/20 09:49:27;;;;;;;18.83;14.23;;;15.20;99.90;;;;;;5032605;28;20662;-74
2023/10/20 09:51:57;;;;;;;19.70;14.83;;;15.20;99.90;;;;;;5032343;28;20203;-75
2023/10/20 09:54:27;;;;;;;22.07;13.90;;;15.10;99.90;;;;;;5014747;28;20270;-75
2023/10/20 09:56:54;;;;;;;19.10;14.27;;;15.20;99.90;;;;;;5032386;28;20187;-74
2023/10/20 09:59:21;;;;;;;18.90;13.63;;;15.20;99.90;;;;;;5032424;28;20182;-74
2023/10/20 10:01:47;;;;;;;19.37;13.70;;;15.20;99.90;;;;;;5031970;28;20215;-75
2023/10/20 10:04:13;;;;;;;18.50;12.97;;;15.20;99.90;;;;;;5032338;28;20522;-74
2023/10/20 10:06:42;;;;;;;19.17;14.03;;;15.30;99.90;;;;;;5032126;28;20203;-74
2023/10/20 10:09:08;;;;;;;20.00;13.13;;;15.30;99.90;;;;;;5031783;28;20540;-74
2023/10/20 10:11:42;;;;;;;18.83;13.37;;;15.30;99.90;;;;;;5014611;28;20230;-75
2023/10/20 10:14:17;;;;;;;19.70;13.57;;;15.30;99.90;;;;;;5031942;28;20174;-75
2023/10/20 10:16:56;;;;;;;18.30;13.60;;;15.30;99.90;;;;;;5031866;28;20190;-74
2023/10/20 10:19:26;;;;;;;17.80;13.33;;;15.30;99.90;;;;;;5032097;28;20205;-74
2023/10/20 10:21:57;;;;;;;15.70;12.90;;;15.40;99.90;;;;;;5031533;28;20278;-74
2023/10/20 10:24:25;;;;;;;19.90;14.20;;;15.40;99.90;;;;;;5032001;28;20179;-75
2023/10/20 10:26:52;;;;;;;17.43;13.87;;;15.50;99.90;;;;;;5031657;28;20195;-75
2023/10/20 10:29:53;;;;;;;16.53;12.70;;;15.60;99.90;;;;;;5030833;28;20194;-75
2023/10/20 10:32:21;;;;;;;16.10;12.97;;;15.60;99.90;;;;;;5012119;28;20701;-75
2023/10/20 10:34:54;;;;;;;17.23;13.33;;;15.60;99.90;;;;;;4994108;28;20175;-75
2023/10/20 10:37:28;;;;;;;17.10;13.20;;;15.60;99.90;;;;;;5012067;28;20172;-75
2023/10/20 10:40:04;;;;;;;16.27;12.50;;;15.60;99.90;;;;;;5011793;28;20597;-74
2023/10/20 10:42:29;;;;;;;15.33;12.27;;;15.80;99.90;;;;;;5030428;28;20176;-75
2023/10/20 10:44:55;;;;;;;18.30;12.40;;;16.00;99.90;;;;;;5030669;28;20254;-74
2023/10/20 10:47:22;;;;;;;13.23;11.83;;;16.10;99.90;;;;;;5031054;28;20242;-75
2023/10/20 10:49:49;;;;;;;14.73;12.10;;;16.10;99.90;;;;;;5013124;28;20184;-73
2023/10/20 10:52:16;;;;;;;15.00;12.60;;;16.00;99.90;;;;;;5031244;28;20624;-74
2023/10/20 10:54:41;;;;;;;16.03;11.93;;;16.00;99.90;;;;;;5030136;28;20172;-74
2023/10/20 10:57:09;;;;;;;14.63;11.93;;;15.90;99.90;;;;;;5012991;28;20182;-75
2023/10/20 10:59:34;;;;;;;17.00;12.17;;;15.90;99.90;;;;;;5031151;28;20266;-75
2023/10/20 11:02:03;;;;;;;13.33;10.80;;;15.90;99.90;;;;;;5013269;28;20298;-75
2023/10/20 11:04:29;;;;;;;14.90;11.00;;;15.80;99.90;;;;;;5030299;28;20175;-74
2023/10/20 11:06:54;;;;;;;13.70;10.90;;;15.80;99.90;;;;;;5030744;28;20203;-74
2023/10/20 11:09:24;;;;;;;13.70;10.80;;;15.80;99.90;;;;;;5031209;28;20167;-74
2023/10/20 11:11:51;;;;;;;13.30;11.03;;;15.80;99.90;;;;;;5030903;28;20703;-74
2023/10/20 11:14:18;;;;;;;15.60;11.90;;;15.70;99.90;;;;;;5013158;28;20274;-75
2023/10/20 11:16:45;;;;;;;14.93;11.43;;;15.70;99.90;;;;;;5030296;28;20176;-74
2023/10/20 11:19:14;;;;;;;14.83;11.60;;;15.60;99.90;;;;;;5029747;28;20183;-75
2023/10/20 11:21:43;;;;;;;13.60;11.30;;;15.60;99.90;;;;;;5029059;28;20557;-75
2023/10/20 11:24:08;;;;;;;13.90;11.30;;;15.50;99.90;;;;;;5030634;28;20178;-75
2023/10/20 11:26:35;;;;;;;13.97;11.57;;;15.50;99.90;;;;;;5012500;28;20211;-74
2023/10/20 11:29:07;;;;;;;12.67;10.73;;;15.50;99.90;;;;;;5030355;28;20738;-75
2023/10/20 11:31:35;;;;;;;13.50;10.50;;;15.40;99.90;;;;;;5030894;28;20282;-75
2023/10/20 11:34:01;;;;;;;15.30;12.10;;;15.30;99.90;;;;;;5012533;28;20191;-75
2023/10/20 11:36:26;;;;;;;15.63;11.87;;;15.40;99.90;;;;;;5030698;28;20190;-75
2023/10/20 11:38:52;;;;;;;14.23;11.70;;;15.30;99.90;;;;;;5030708;28;20267;-74
2023/10/20 11:41:17;;;;;;;20.70;12.03;;;15.30;99.90;;;;;;5030389;28;20248;-74
2023/10/20 11:43:43;;;;;;;13.47;11.33;;;15.30;99.90;;;;;;5030039;28;20187;-74
2023/10/20 11:46:11;;;;;;;12.20;10.90;;;15.30;99.90;;;;;;5030533;28;20203;-74
2023/10/20 11:48:36;;;;;;;12.83;11.23;;;15.30;99.90;;;;;;5030715;28;20230;-75
2023/10/20 11:51:02;;;;;;;14.53;11.23;;;15.20;99.90;;;;;;5030820;28;20187;-74
2023/10/20 11:53:28;;;;;;;14.50;11.97;;;15.20;99.90;;;;;;5012404;28;20666;-75
2023/10/20 11:55:54;;;;;;;14.40;12.47;;;15.10;99.90;;;;;;5030333;28;20259;-74
2023/10/20 11:58:20;;;;;;;12.70;11.40;;;15.10;99.90;;;;;;5030693;28;20513;-74
2023/10/20 12:00:46;;;;;;;14.23;11.77;;;15.10;99.90;;;;;;5030411;28;20198;-75
2023/10/20 12:03:11;;;;;;;13.60;12.20;;;15.10;99.90;;;;;;5012692;28;20543;-75
2023/10/20 12:05:37;;;;;;;16.87;11.93;;;15.10;99.90;;;;;;5030489;28;20171;-74
2023/10/20 12:08:04;;;;;;;20.07;12.37;;;15.10;99.90;;;;;;5030839;28;20164;-75
2023/10/20 12:10:31;;;;;;;14.67;12.73;;;15.10;99.90;;;;;;5030736;28;20183;-75
2023/10/20 12:12:57;;;;;;;15.40;12.10;;;15.20;99.90;;;;;;5030634;28;20250;-74
2023/10/20 12:15:22;;;;;;;20.10;12.63;;;15.20;99.90;;;;;;5030807;28;20175;-74
2023/10/20 12:17:48;;;;;;;13.93;11.67;;;15.20;99.90;;;;;;5029653;28;20187;-75
2023/10/20 12:20:15;;;;;;;17.47;11.67;;;15.20;99.90;;;;;;5029971;28;20179;-75
2023/10/20 12:22:40;;;;;;;14.43;11.70;;;15.20;99.90;;;;;;5029352;28;20171;-75
2023/10/20 12:25:06;;;;;;;14.63;11.63;;;15.20;99.90;;;;;;5030164;28;20263;-75
2023/10/20 12:27:32;;;;;;;14.20;12.53;;;15.20;99.90;;;;;;5012574;28;20806;-75
2023/10/20 12:29:58;;;;;;;14.23;12.73;;;15.30;99.90;;;;;;5030080;28;20255;-74
2023/10/20 12:32:24;;;;;;;14.20;12.07;;;15.30;99.90;;;;;;5031588;28;20194;-75
2023/10/20 12:34:49;;;;;;;14.53;12.33;;;15.40;99.90;;;;;;5033557;28;20655;-75
2023/10/20 12:37:15;;;;;;;15.03;12.40;;;15.50;99.90;;;;;;5033817;28;20257;-75
2023/10/20 12:39:41;;;;;;;16.47;11.77;;;15.60;99.90;;;;;;5033586;28;20187;-75
2023/10/20 12:42:06;;;;;;;19.23;12.83;;;15.70;99.90;;;;;;5033774;28;20222;-75
2023/10/20 12:44:33;;;;;;;13.93;11.80;;;15.80;99.90;;;;;;5033123;28;20274;-75
2023/10/20 12:46:59;;;;;;;17.73;12.47;;;15.90;99.90;;;;;;5032835;28;20195;-74
2023/10/20 12:49:25;;;;;;;14.10;12.67;;;15.90;99.90;;;;;;5033522;28;20259;-73
2023/10/20 12:51:50;;;;;;;15.30;12.57;;;15.90;99.90;;;;;;5033416;28;20191;-74
2023/10/20 12:54:16;;;;;;;13.87;11.63;;;16.00;99.90;;;;;;5033723;28;20202;-73
2023/10/20 12:56:42;;;;;;;14.83;12.27;;;16.00;99.90;;;;;;5032438;28;20224;-73
2023/10/20 12:59:08;;;;;;;15.47;12.07;;;16.00;99.90;;;;;;5032956;28;20262;-73
2023/10/20 13:01:33;;;;;;;14.70;12.00;;;15.80;99.90;;;;;;5033458;28;20191;-73
2023/10/20 13:03:59;;;;;;;17.87;13.20;;;15.80;99.90;;;;;;5033156;28;20194;-73